createdAt,value
2023-05-13T00:01:43.633Z,4.80
2023-05-13T00:06:52.432Z,4.80
2023-05-13T00:11:57.618Z,5.00
2023-05-13T00:17:05.017Z,4.70
2023-05-13T00:22:13.655Z,4.70
2023-05-13T00:27:20.934Z,5.30
2023-05-13T00:32:29.041Z,5.10
2023-05-13T00:37:31.857Z,5.30
2023-05-13T00:42:37.290Z,5.30
2023-05-13T00:47:41.215Z,4.60
2023-05-13T00:52:57.581Z,4.70
2023-05-13T00:58:11.979Z,5.90
2023-05-13T01:03:29.363Z,4.60
2023-05-13T01:08:52.946Z,4.70
2023-05-13T01:14:05.117Z,5.00
2023-05-13T01:19:27.713Z,4.40
2023-05-13T01:24:30.161Z,4.90
2023-05-13T01:29:33.145Z,5.20
2023-05-13T01:34:46.545Z,6.10
2023-05-13T01:39:49.587Z,5.20
2023-05-13T01:44:56.556Z,5.80
2023-05-13T01:50:14.141Z,6.30
2023-05-13T01:55:31.013Z,6.00
2023-05-13T02:00:34.331Z,6.50
2023-05-13T02:05:36.737Z,6.80
2023-05-13T02:10:40.072Z,6.50
2023-05-13T02:15:42.244Z,6.30
2023-05-13T02:20:45.068Z,7.20
2023-05-13T02:25:54.749Z,6.70
2023-05-13T02:30:59.969Z,6.50
2023-05-13T02:36:02.686Z,5.40
2023-05-13T02:41:05.080Z,5.80
2023-05-13T02:46:07.820Z,6.70
2023-05-13T02:51:13.938Z,6.30
2023-05-13T02:56:17.481Z,5.70
2023-05-13T03:01:19.800Z,6.50
2023-05-13T03:06:25.552Z,6.40
2023-05-13T03:11:27.938Z,6.50
2023-05-13T03:16:30.330Z,6.50
2023-05-13T03:21:32.642Z,6.60
2023-05-13T03:26:40.293Z,6.60
2023-05-13T03:31:43.346Z,6.40
2023-05-13T03:36:46.115Z,6.80
2023-05-13T03:41:55.765Z,6.90
2023-05-13T03:47:01.416Z,7.20
2023-05-13T03:52:13.479Z,6.90
2023-05-13T03:57:16.461Z,7.90
2023-05-13T04:02:23.158Z,8.10
2023-05-13T04:07:28.383Z,8.00
2023-05-13T04:12:33.873Z,7.40
2023-05-13T04:17:51.137Z,8.10
2023-05-13T04:22:53.101Z,7.40
2023-05-13T04:27:55.636Z,7.00
2023-05-13T04:33:03.520Z,7.60
2023-05-13T04:38:06.609Z,7.00
2023-05-13T04:43:08.719Z,7.40
2023-05-13T04:48:18.057Z,7.50
2023-05-13T04:53:20.472Z,8.00
2023-05-13T04:58:25.929Z,7.60
2023-05-13T05:03:32.593Z,7.30
2023-05-13T05:08:36.284Z,8.20
2023-05-13T05:13:38.617Z,7.70
2023-05-13T05:18:43.457Z,8.70
2023-05-13T05:23:49.321Z,9.20
2023-05-13T05:28:53.290Z,9.20
2023-05-13T05:33:56.564Z,9.00
2023-05-13T05:38:59.033Z,9.60
2023-05-13T05:44:07.365Z,9.00
2023-05-13T05:49:09.837Z,8.90
2023-05-13T05:54:15.858Z,10.50
2023-05-13T05:59:21.084Z,10.00
2023-05-13T06:04:24.893Z,9.10
2023-05-13T06:09:30.562Z,10.20
2023-05-13T06:14:32.898Z,12.30
2023-05-13T06:19:36.303Z,10.60
2023-05-13T06:24:42.960Z,10.70
2023-05-13T06:29:45.492Z,11.00
2023-05-13T06:34:48.588Z,10.50
2023-05-13T06:39:51.383Z,10.10
2023-05-13T06:44:54.111Z,9.10
2023-05-13T06:50:04.142Z,8.00
2023-05-13T06:55:10.574Z,8.00
2023-05-13T07:00:18.919Z,7.20
2023-05-13T07:05:27.123Z,7.40
2023-05-13T07:10:40.248Z,6.20
2023-05-13T07:15:53.849Z,7.20
2023-05-13T07:21:04.657Z,6.00
2023-05-13T07:26:18.495Z,5.30
2023-05-13T07:31:30.847Z,4.50
2023-05-13T07:36:33.113Z,4.50
2023-05-13T07:41:36.692Z,4.20
2023-05-13T07:46:38.952Z,3.70
2023-05-13T07:51:41.381Z,3.60
2023-05-13T07:56:48.175Z,3.50
2023-05-13T08:01:50.692Z,2.70
2023-05-13T08:06:53.849Z,2.80
2023-05-13T08:11:59.139Z,2.30
2023-05-13T08:17:01.547Z,2.50
2023-05-13T08:22:04.358Z,2.70
2023-05-13T08:27:17.249Z,2.80
2023-05-13T08:32:19.837Z,2.10
2023-05-13T08:37:24.972Z,2.30
2023-05-13T08:42:32.665Z,2.50
2023-05-13T08:47:54.636Z,2.50
2023-05-13T08:53:04.655Z,3.50
2023-05-13T08:58:07.330Z,2.70
2023-05-13T09:03:15.208Z,2.70
2023-05-13T09:08:18.004Z,3.10
2023-05-13T09:13:20.288Z,2.50
2023-05-13T09:18:30.868Z,2.70
2023-05-13T09:23:33.887Z,2.50
2023-05-13T09:28:36.025Z,2.40
2023-05-13T09:33:38.647Z,2.90
2023-05-13T09:38:41.183Z,2.30
2023-05-13T09:43:43.534Z,2.40
2023-05-13T09:48:59.182Z,2.30
2023-05-13T09:54:14.247Z,2.30
2023-05-13T09:59:19.165Z,2.20
2023-05-13T10:04:22.945Z,2.00
2023-05-13T10:09:46.232Z,2.30
2023-05-13T10:14:53.094Z,3.70
2023-05-13T10:19:55.108Z,2.30
2023-05-13T10:25:02.062Z,2.50
2023-05-13T10:30:09.760Z,2.30
2023-05-13T10:35:15.007Z,2.60
2023-05-13T10:40:47.795Z,2.20
2023-05-13T10:46:00.566Z,2.70
2023-05-13T10:51:11.552Z,2.40
2023-05-13T10:56:14.582Z,2.60
2023-05-13T11:01:43.090Z,2.40
2023-05-13T11:06:50.881Z,2.90
2023-05-13T11:11:57.305Z,2.60
2023-05-13T11:17:03.341Z,2.80
2023-05-13T11:22:13.065Z,2.30
2023-05-13T11:27:18.112Z,2.50
2023-05-13T11:32:53.802Z,1.90
2023-05-13T11:38:00.109Z,1.90
2023-05-13T11:43:05.093Z,1.60
2023-05-13T11:48:24.260Z,2.30
2023-05-13T11:53:26.214Z,2.20
2023-05-13T11:58:28.710Z,2.00
2023-05-13T12:03:31.302Z,2.40
2023-05-13T12:08:34.216Z,2.30
2023-05-13T12:13:36.591Z,2.30
2023-05-13T12:18:39.558Z,2.20
2023-05-13T12:23:41.705Z,1.90
2023-05-13T12:28:44.270Z,2.00
2023-05-13T12:33:49.604Z,2.00
2023-05-13T12:39:04.085Z,2.00
2023-05-13T12:44:18.391Z,2.10
2023-05-13T12:49:23.163Z,2.10
2023-05-13T12:54:25.435Z,2.30
2023-05-13T12:59:29.580Z,2.60
2023-05-13T13:04:31.715Z,2.40
2023-05-13T13:09:34.131Z,2.40
2023-05-13T13:14:36.382Z,2.50
2023-05-13T13:19:39.128Z,2.40
2023-05-13T13:24:44.159Z,2.30
2023-05-13T13:29:54.556Z,2.60
2023-05-13T13:34:58.281Z,2.20
2023-05-13T13:40:00.783Z,2.30
2023-05-13T13:45:13.801Z,2.90
2023-05-13T13:50:18.210Z,2.20
2023-05-13T13:55:21.562Z,2.60
2023-05-13T14:00:24.362Z,2.60
2023-05-13T14:05:26.790Z,2.50
2023-05-13T14:10:32.245Z,2.30
2023-05-13T14:15:39.358Z,2.70
2023-05-13T14:20:42.200Z,2.80
2023-05-13T14:25:44.960Z,2.50
2023-05-13T14:30:47.598Z,2.90
2023-05-13T14:35:50.036Z,2.50
2023-05-13T14:40:52.710Z,2.60
2023-05-13T14:45:54.966Z,2.50
2023-05-13T14:51:10.749Z,2.70
2023-05-13T14:56:13.025Z,2.60
2023-05-13T15:01:22.961Z,2.30
2023-05-13T15:06:25.500Z,2.50
2023-05-13T15:11:28.414Z,2.50
2023-05-13T15:16:30.515Z,2.00
2023-05-13T15:21:33.665Z,2.40
2023-05-13T15:26:45.237Z,2.20
2023-05-13T15:31:57.973Z,2.60
2023-05-13T15:37:03.332Z,2.50
2023-05-13T15:42:06.970Z,2.60
2023-05-13T15:47:08.940Z,2.50
2023-05-13T15:52:16.009Z,2.30
2023-05-13T15:57:19.267Z,2.30
2023-05-13T16:02:21.843Z,2.80
2023-05-13T16:07:26.926Z,2.40
2023-05-13T16:12:35.119Z,2.70
2023-05-13T16:17:40.561Z,3.70
2023-05-13T16:22:44.216Z,3.70
2023-05-13T16:27:55.577Z,3.90
2023-05-13T16:33:01.059Z,4.10
2023-05-13T16:38:05.931Z,3.40
2023-05-13T16:43:08.586Z,3.10
2023-05-13T16:48:10.890Z,3.10
2023-05-13T16:53:13.719Z,3.20
2023-05-13T16:58:18.888Z,3.20
2023-05-13T17:03:23.819Z,3.30
2023-05-13T17:08:26.041Z,3.20
2023-05-13T17:13:31.501Z,2.50
2023-05-13T17:18:37.272Z,2.40
2023-05-13T17:23:44.774Z,2.60
2023-05-13T17:29:07.231Z,2.70
2023-05-13T17:34:15.632Z,2.20
2023-05-13T17:39:17.821Z,2.40
2023-05-13T17:44:42.662Z,2.40
2023-05-13T17:50:14.923Z,2.50
2023-05-13T17:55:33.092Z,2.60
2023-05-13T18:00:45.500Z,3.50
2023-05-13T18:05:48.492Z,3.40
2023-05-13T18:10:56.229Z,2.90
2023-05-13T18:16:12.227Z,2.60
2023-05-13T18:21:20.112Z,3.00
2023-05-13T18:26:33.312Z,3.30
2023-05-13T18:32:16.852Z,3.20
2023-05-13T18:37:19.448Z,4.00
2023-05-13T18:42:24.703Z,4.50
2023-05-13T18:47:30.579Z,4.40
2023-05-13T18:52:45.090Z,5.40
2023-05-13T18:57:47.230Z,6.00
2023-05-13T19:02:49.228Z,4.30
2023-05-13T19:07:51.997Z,4.20
2023-05-13T19:12:54.435Z,3.80
2023-05-13T19:17:58.862Z,4.70
2023-05-13T19:23:01.640Z,5.20
2023-05-13T19:28:04.770Z,5.50
2023-05-13T19:33:09.866Z,5.10
2023-05-13T19:38:14.562Z,6.10
2023-05-13T19:43:16.582Z,8.40
2023-05-13T19:48:22.049Z,7.20
2023-05-13T19:53:33.080Z,7.00
2023-05-13T19:58:35.724Z,7.80
2023-05-13T20:03:37.966Z,6.80
2023-05-13T20:08:43.911Z,7.30
2023-05-13T20:13:45.869Z,7.90
2023-05-13T20:18:54.217Z,8.70
2023-05-13T20:23:56.821Z,9.80
2023-05-13T20:29:00.674Z,8.90
2023-05-13T20:34:03.789Z,8.90
2023-05-13T20:39:08.600Z,9.90
2023-05-13T20:44:12.677Z,9.20
2023-05-13T20:49:15.560Z,9.90
2023-05-13T20:54:20.410Z,9.50
2023-05-13T20:59:22.971Z,8.30
2023-05-13T21:04:28.366Z,9.30
2023-05-13T21:09:34.783Z,8.60
2023-05-13T21:14:46.598Z,8.60
2023-05-13T21:19:49.638Z,9.00
2023-05-13T21:24:51.778Z,9.50
2023-05-13T21:29:54.865Z,10.40
2023-05-13T21:34:57.058Z,12.00
2023-05-13T21:40:02.071Z,11.40
2023-05-13T21:45:07.430Z,12.70
2023-05-13T21:50:35.364Z,11.30
2023-05-13T21:55:40.510Z,12.70
2023-05-13T22:00:43.205Z,10.00
2023-05-13T22:05:48.315Z,9.70
2023-05-13T22:10:51.040Z,8.90
2023-05-13T22:15:53.707Z,8.50
2023-05-13T22:21:01.934Z,8.90
2023-05-13T22:26:05.549Z,8.90
2023-05-13T22:31:08.874Z,9.20
2023-05-13T22:36:12.070Z,9.10
2023-05-13T22:41:19.065Z,10.20
2023-05-13T22:46:23.672Z,10.10
2023-05-13T22:51:26.175Z,10.10
2023-05-13T22:56:28.331Z,10.60
2023-05-13T23:01:31.001Z,10.10
2023-05-13T23:06:36.825Z,10.30
2023-05-13T23:11:49.320Z,10.80
2023-05-13T23:16:52.295Z,10.30
2023-05-13T23:21:57.847Z,10.90
2023-05-13T23:27:00.360Z,10.90
2023-05-13T23:32:07.040Z,10.40
2023-05-13T23:37:09.502Z,10.80
2023-05-13T23:42:12.825Z,10.50
2023-05-13T23:47:20.709Z,9.70
2023-05-13T23:52:26.362Z,10.20
2023-05-13T23:57:28.450Z,11.50
